CPU6 weather

Tyendinaga Mohawk Airport
Tyendinaga, Ontario, Canada

Public forecast

Using degrees Celsius for public forecast. Weather courtesy of forecast.io.

METAR (pilot weather report)

Closest report is CFB Trenton, 18.5 nm (34.3 km) WSW. Retrieved 2019/04/19 08:00 UTC (18 minutes ago):

CYTR 190800Z 20003KT 15SM BKN050 OVC160 12/10 A2958 RMK SC5AC3 SLP019

TAF (pilot weather forecast)

Closest forecast is CFB Trenton, 18.5 nm (34.3 km) WSW. Retrieved 2019/04/19 06:33 UTC (2 hours ago):

TAF CYTR 190530Z 1906/2006 24006KT P6SM FEW012 OVC060 TEMPO 1906/1915 5SM -SHRA BR FEW008 OVC012 BECMG 1913/1915 03010KT FM191500 03010KT 6SM -RA BR SCT008 OVC015 TEMPO 1915/1924 2SM -RA BR SCT005 OVC008 BECMG 1918/1920 03018KT FM200000 03018KT 4SM -RA BR SCT005 OVC008 TEMPO 2000/2006 11/2SM RA BR SCT002 OVC005 RMK NXT FCST BY 191200Z